sensor_id;sensor_type;location;lat;lon;timestamp;P1;durP1;ratioP1;P2;durP2;ratioP2
21894;SDS011;11112;51.270;7.224;2023-04-15T00:01:03;9.13;;;3.60;;
21894;SDS011;11112;51.270;7.224;2023-04-15T00:03:32;9.50;;;3.78;;
21894;SDS011;11112;51.270;7.224;2023-04-15T00:06:00;9.35;;;3.30;;
21894;SDS011;11112;51.270;7.224;2023-04-15T00:08:28;7.22;;;3.53;;
21894;SDS011;11112;51.270;7.224;2023-04-15T00:10:58;7.00;;;3.33;;
21894;SDS011;11112;51.270;7.224;2023-04-15T00:13:29;12.15;;;3.40;;
21894;SDS011;11112;51.270;7.224;2023-04-15T00:15:58;9.02;;;3.30;;
21894;SDS011;11112;51.270;7.224;2023-04-15T00:18:26;7.60;;;3.33;;
21894;SDS011;11112;51.270;7.224;2023-04-15T00:20:53;8.88;;;3.80;;
21894;SDS011;11112;51.270;7.224;2023-04-15T00:23:22;8.32;;;3.55;;
21894;SDS011;11112;51.270;7.224;2023-04-15T00:25:50;8.45;;;3.38;;
21894;SDS011;11112;51.270;7.224;2023-04-15T00:28:19;10.35;;;3.25;;
21894;SDS011;11112;51.270;7.224;2023-04-15T00:30:46;11.13;;;3.60;;
21894;SDS011;11112;51.270;7.224;2023-04-15T00:33:14;8.30;;;3.42;;
21894;SDS011;11112;51.270;7.224;2023-04-15T00:35:42;8.82;;;3.50;;
21894;SDS011;11112;51.270;7.224;2023-04-15T00:38:10;9.13;;;3.70;;
21894;SDS011;11112;51.270;7.224;2023-04-15T00:40:39;7.63;;;3.30;;
21894;SDS011;11112;51.270;7.224;2023-04-15T00:43:07;7.72;;;3.30;;
21894;SDS011;11112;51.270;7.224;2023-04-15T00:45:36;10.13;;;3.90;;
21894;SDS011;11112;51.270;7.224;2023-04-15T00:48:05;8.90;;;3.35;;
21894;SDS011;11112;51.270;7.224;2023-04-15T00:50:36;7.43;;;3.47;;
21894;SDS011;11112;51.270;7.224;2023-04-15T00:53:04;10.45;;;3.35;;
21894;SDS011;11112;51.270;7.224;2023-04-15T00:55:33;8.32;;;3.30;;
21894;SDS011;11112;51.270;7.224;2023-04-15T00:58:03;8.80;;;3.40;;
21894;SDS011;11112;51.270;7.224;2023-04-15T01:03:29;9.50;;;3.90;;
21894;SDS011;11112;51.270;7.224;2023-04-15T01:05:57;10.52;;;3.67;;
21894;SDS011;11112;51.270;7.224;2023-04-15T01:08:26;9.38;;;4.13;;
21894;SDS011;11112;51.270;7.224;2023-04-15T01:11:07;10.23;;;3.63;;
21894;SDS011;11112;51.270;7.224;2023-04-15T01:13:36;7.68;;;3.97;;
21894;SDS011;11112;51.270;7.224;2023-04-15T01:16:05;7.53;;;3.40;;
21894;SDS011;11112;51.270;7.224;2023-04-15T01:18:34;9.35;;;3.83;;
21894;SDS011;11112;51.270;7.224;2023-04-15T01:21:03;7.45;;;3.60;;
21894;SDS011;11112;51.270;7.224;2023-04-15T01:23:34;7.60;;;3.60;;
21894;SDS011;11112;51.270;7.224;2023-04-15T01:26:04;7.47;;;3.65;;
21894;SDS011;11112;51.270;7.224;2023-04-15T01:28:33;8.45;;;3.25;;
21894;SDS011;11112;51.270;7.224;2023-04-15T01:31:08;10.88;;;3.90;;
21894;SDS011;11112;51.270;7.224;2023-04-15T01:33:38;9.23;;;3.67;;
21894;SDS011;11112;51.270;7.224;2023-04-15T01:36:07;10.38;;;3.72;;
21894;SDS011;11112;51.270;7.224;2023-04-15T01:38:35;7.03;;;3.63;;
21894;SDS011;11112;51.270;7.224;2023-04-15T01:41:05;9.50;;;3.30;;
21894;SDS011;11112;51.270;7.224;2023-04-15T01:43:33;10.80;;;4.07;;
21894;SDS011;11112;51.270;7.224;2023-04-15T01:46:01;10.88;;;3.97;;
21894;SDS011;11112;51.270;7.224;2023-04-15T01:48:30;11.13;;;3.60;;
21894;SDS011;11112;51.270;7.224;2023-04-15T01:50:58;9.23;;;3.95;;
21894;SDS011;11112;51.270;7.224;2023-04-15T01:53:26;9.02;;;3.65;;
21894;SDS011;11112;51.270;7.224;2023-04-15T01:55:54;10.20;;;3.67;;
21894;SDS011;11112;51.270;7.224;2023-04-15T01:58:22;8.75;;;4.00;;
21894;SDS011;11112;51.270;7.224;2023-04-15T02:00:50;8.00;;;3.50;;
21894;SDS011;11112;51.270;7.224;2023-04-15T02:03:17;7.40;;;3.80;;
21894;SDS011;11112;51.270;7.224;2023-04-15T02:05:45;9.73;;;3.92;;
21894;SDS011;11112;51.270;7.224;2023-04-15T02:08:13;7.95;;;3.70;;
21894;SDS011;11112;51.270;7.224;2023-04-15T02:10:40;8.18;;;3.55;;
21894;SDS011;11112;51.270;7.224;2023-04-15T02:13:08;10.40;;;3.75;;
21894;SDS011;11112;51.270;7.224;2023-04-15T02:15:37;8.73;;;3.67;;
21894;SDS011;11112;51.270;7.224;2023-04-15T02:18:05;7.82;;;3.85;;
21894;SDS011;11112;51.270;7.224;2023-04-15T02:20:32;10.07;;;3.47;;
21894;SDS011;11112;51.270;7.224;2023-04-15T02:23:00;6.85;;;3.38;;
21894;SDS011;11112;51.270;7.224;2023-04-15T02:25:31;9.07;;;3.85;;
21894;SDS011;11112;51.270;7.224;2023-04-15T02:27:58;10.98;;;4.03;;
21894;SDS011;11112;51.270;7.224;2023-04-15T02:30:27;6.28;;;3.58;;
21894;SDS011;11112;51.270;7.224;2023-04-15T02:32:56;8.75;;;4.00;;
21894;SDS011;11112;51.270;7.224;2023-04-15T02:35:23;8.80;;;4.32;;
21894;SDS011;11112;51.270;7.224;2023-04-15T02:37:51;10.65;;;3.97;;
21894;SDS011;11112;51.270;7.224;2023-04-15T02:40:18;10.93;;;4.32;;
21894;SDS011;11112;51.270;7.224;2023-04-15T02:42:46;9.05;;;4.20;;
21894;SDS011;11112;51.270;7.224;2023-04-15T02:45:14;9.68;;;4.15;;
21894;SDS011;11112;51.270;7.224;2023-04-15T02:47:43;11.10;;;4.25;;
21894;SDS011;11112;51.270;7.224;2023-04-15T02:50:13;6.93;;;3.97;;
21894;SDS011;11112;51.270;7.224;2023-04-15T02:52:41;8.52;;;4.03;;
21894;SDS011;11112;51.270;7.224;2023-04-15T02:55:09;8.52;;;4.32;;
21894;SDS011;11112;51.270;7.224;2023-04-15T02:57:37;9.25;;;3.83;;
21894;SDS011;11112;51.270;7.224;2023-04-15T03:00:06;10.20;;;4.10;;
21894;SDS011;11112;51.270;7.224;2023-04-15T03:02:36;8.65;;;4.57;;
21894;SDS011;11112;51.270;7.224;2023-04-15T03:05:09;9.63;;;4.10;;
21894;SDS011;11112;51.270;7.224;2023-04-15T03:07:40;8.60;;;4.30;;
21894;SDS011;11112;51.270;7.224;2023-04-15T03:10:08;10.60;;;4.05;;
21894;SDS011;11112;51.270;7.224;2023-04-15T03:12:38;8.70;;;3.90;;
21894;SDS011;11112;51.270;7.224;2023-04-15T03:15:06;8.23;;;3.97;;
21894;SDS011;11112;51.270;7.224;2023-04-15T03:17:35;9.98;;;4.00;;
21894;SDS011;11112;51.270;7.224;2023-04-15T03:20:03;10.57;;;4.75;;
21894;SDS011;11112;51.270;7.224;2023-04-15T03:22:34;7.53;;;4.07;;
21894;SDS011;11112;51.270;7.224;2023-04-15T03:25:01;7.57;;;4.03;;
21894;SDS011;11112;51.270;7.224;2023-04-15T03:27:29;6.82;;;4.00;;
21894;SDS011;11112;51.270;7.224;2023-04-15T03:29:58;8.52;;;4.55;;
21894;SDS011;11112;51.270;7.224;2023-04-15T03:32:27;7.68;;;4.30;;
21894;SDS011;11112;51.270;7.224;2023-04-15T03:34:57;8.82;;;4.15;;
21894;SDS011;11112;51.270;7.224;2023-04-15T03:37:26;7.10;;;4.10;;
21894;SDS011;11112;51.270;7.224;2023-04-15T03:39:56;6.88;;;3.97;;
21894;SDS011;11112;51.270;7.224;2023-04-15T03:42:24;9.60;;;4.88;;
21894;SDS011;11112;51.270;7.224;2023-04-15T03:44:52;9.00;;;4.80;;
21894;SDS011;11112;51.270;7.224;2023-04-15T03:47:22;11.80;;;4.60;;
21894;SDS011;11112;51.270;7.224;2023-04-15T03:49:49;9.07;;;4.70;;
21894;SDS011;11112;51.270;7.224;2023-04-15T03:52:17;7.85;;;4.40;;
21894;SDS011;11112;51.270;7.224;2023-04-15T03:54:44;9.38;;;5.00;;
21894;SDS011;11112;51.270;7.224;2023-04-15T03:57:13;9.85;;;4.50;;
21894;SDS011;11112;51.270;7.224;2023-04-15T03:59:40;8.13;;;4.45;;
21894;SDS011;11112;51.270;7.224;2023-04-15T04:02:08;11.00;;;4.55;;
21894;SDS011;11112;51.270;7.224;2023-04-15T04:04:35;7.85;;;4.38;;
21894;SDS011;11112;51.270;7.224;2023-04-15T04:07:03;7.97;;;4.00;;
21894;SDS011;11112;51.270;7.224;2023-04-15T04:09:31;7.60;;;4.25;;
21894;SDS011;11112;51.270;7.224;2023-04-15T04:11:59;9.52;;;4.68;;
21894;SDS011;11112;51.270;7.224;2023-04-15T04:14:28;8.82;;;5.05;;
21894;SDS011;11112;51.270;7.224;2023-04-15T04:16:59;9.90;;;4.53;;
21894;SDS011;11112;51.270;7.224;2023-04-15T04:19:27;9.15;;;5.13;;
21894;SDS011;11112;51.270;7.224;2023-04-15T04:21:58;8.88;;;4.72;;
21894;SDS011;11112;51.270;7.224;2023-04-15T04:24:25;7.95;;;5.10;;
21894;SDS011;11112;51.270;7.224;2023-04-15T04:26:53;8.15;;;5.25;;
21894;SDS011;11112;51.270;7.224;2023-04-15T04:29:20;8.77;;;5.30;;
21894;SDS011;11112;51.270;7.224;2023-04-15T04:31:49;7.50;;;5.05;;
21894;SDS011;11112;51.270;7.224;2023-04-15T04:34:16;9.15;;;5.13;;
21894;SDS011;11112;51.270;7.224;2023-04-15T04:36:45;9.65;;;5.53;;
21894;SDS011;11112;51.270;7.224;2023-04-15T04:39:13;8.90;;;5.38;;
21894;SDS011;11112;51.270;7.224;2023-04-15T04:41:40;9.10;;;4.95;;
21894;SDS011;11112;51.270;7.224;2023-04-15T04:44:11;7.30;;;5.15;;
21894;SDS011;11112;51.270;7.224;2023-04-15T04:46:39;7.93;;;5.25;;
21894;SDS011;11112;51.270;7.224;2023-04-15T04:49:08;11.02;;;5.28;;
21894;SDS011;11112;51.270;7.224;2023-04-15T04:51:36;8.55;;;5.15;;
21894;SDS011;11112;51.270;7.224;2023-04-15T04:54:03;7.32;;;4.50;;
21894;SDS011;11112;51.270;7.224;2023-04-15T04:56:31;10.50;;;5.32;;
21894;SDS011;11112;51.270;7.224;2023-04-15T04:58:59;10.40;;;4.90;;
21894;SDS011;11112;51.270;7.224;2023-04-15T05:01:27;8.80;;;5.03;;
21894;SDS011;11112;51.270;7.224;2023-04-15T05:03:54;10.57;;;5.03;;
21894;SDS011;11112;51.270;7.224;2023-04-15T05:06:24;7.70;;;4.90;;
21894;SDS011;11112;51.270;7.224;2023-04-15T05:08:52;7.90;;;4.72;;
21894;SDS011;11112;51.270;7.224;2023-04-15T05:11:20;9.45;;;5.00;;
21894;SDS011;11112;51.270;7.224;2023-04-15T05:13:48;9.20;;;6.07;;
21894;SDS011;11112;51.270;7.224;2023-04-15T05:16:15;10.18;;;6.18;;
21894;SDS011;11112;51.270;7.224;2023-04-15T05:18:44;13.05;;;7.75;;
21894;SDS011;11112;51.270;7.224;2023-04-15T05:21:11;11.80;;;7.20;;
21894;SDS011;11112;51.270;7.224;2023-04-15T05:23:43;10.75;;;6.80;;
21894;SDS011;11112;51.270;7.224;2023-04-15T05:26:12;9.50;;;7.05;;
21894;SDS011;11112;51.270;7.224;2023-04-15T05:28:40;10.85;;;7.15;;
21894;SDS011;11112;51.270;7.224;2023-04-15T05:31:07;17.25;;;7.30;;
21894;SDS011;11112;51.270;7.224;2023-04-15T05:33:35;13.18;;;6.57;;
21894;SDS011;11112;51.270;7.224;2023-04-15T05:36:03;12.68;;;6.10;;
21894;SDS011;11112;51.270;7.224;2023-04-15T05:38:30;13.23;;;6.13;;
21894;SDS011;11112;51.270;7.224;2023-04-15T05:41:03;11.85;;;6.65;;
21894;SDS011;11112;51.270;7.224;2023-04-15T05:43:30;9.65;;;5.95;;
21894;SDS011;11112;51.270;7.224;2023-04-15T05:45:58;10.88;;;6.38;;
21894;SDS011;11112;51.270;7.224;2023-04-15T05:48:26;11.18;;;6.50;;
21894;SDS011;11112;51.270;7.224;2023-04-15T05:50:53;11.50;;;6.85;;
21894;SDS011;11112;51.270;7.224;2023-04-15T05:53:22;12.63;;;6.90;;
21894;SDS011;11112;51.270;7.224;2023-04-15T05:55:50;11.70;;;7.47;;
21894;SDS011;11112;51.270;7.224;2023-04-15T05:58:20;13.02;;;8.45;;
21894;SDS011;11112;51.270;7.224;2023-04-15T06:00:47;14.10;;;10.25;;
21894;SDS011;11112;51.270;7.224;2023-04-15T06:03:15;20.00;;;11.63;;
21894;SDS011;11112;51.270;7.224;2023-04-15T06:05:46;17.13;;;11.63;;
21894;SDS011;11112;51.270;7.224;2023-04-15T06:08:14;16.45;;;11.48;;
21894;SDS011;11112;51.270;7.224;2023-04-15T06:10:41;15.48;;;11.40;;
21894;SDS011;11112;51.270;7.224;2023-04-15T06:13:10;16.17;;;11.27;;
21894;SDS011;11112;51.270;7.224;2023-04-15T06:15:39;17.52;;;10.60;;
21894;SDS011;11112;51.270;7.224;2023-04-15T06:18:07;16.67;;;11.38;;
21894;SDS011;11112;51.270;7.224;2023-04-15T06:20:37;16.10;;;10.57;;
21894;SDS011;11112;51.270;7.224;2023-04-15T06:23:06;18.23;;;11.00;;
21894;SDS011;11112;51.270;7.224;2023-04-15T06:25:33;16.00;;;11.02;;
21894;SDS011;11112;51.270;7.224;2023-04-15T06:28:00;18.25;;;11.57;;
21894;SDS011;11112;51.270;7.224;2023-04-15T06:30:28;17.95;;;11.35;;
21894;SDS011;11112;51.270;7.224;2023-04-15T06:32:57;18.85;;;12.02;;
21894;SDS011;11112;51.270;7.224;2023-04-15T06:35:24;19.65;;;11.85;;
21894;SDS011;11112;51.270;7.224;2023-04-15T06:37:52;17.15;;;12.05;;
21894;SDS011;11112;51.270;7.224;2023-04-15T06:40:20;18.30;;;12.45;;
21894;SDS011;11112;51.270;7.224;2023-04-15T06:42:48;19.88;;;11.98;;
21894;SDS011;11112;51.270;7.224;2023-04-15T06:45:15;17.63;;;12.18;;
21894;SDS011;11112;51.270;7.224;2023-04-15T06:47:43;19.05;;;13.32;;
21894;SDS011;11112;51.270;7.224;2023-04-15T06:50:12;20.35;;;12.43;;
21894;SDS011;11112;51.270;7.224;2023-04-15T06:52:39;16.42;;;12.27;;
21894;SDS011;11112;51.270;7.224;2023-04-15T06:55:08;21.77;;;13.35;;
21894;SDS011;11112;51.270;7.224;2023-04-15T06:57:35;21.73;;;13.48;;
21894;SDS011;11112;51.270;7.224;2023-04-15T07:00:03;18.73;;;13.07;;
21894;SDS011;11112;51.270;7.224;2023-04-15T07:02:36;18.33;;;12.82;;
21894;SDS011;11112;51.270;7.224;2023-04-15T07:05:04;18.80;;;13.45;;
21894;SDS011;11112;51.270;7.224;2023-04-15T07:07:34;19.77;;;14.02;;
21894;SDS011;11112;51.270;7.224;2023-04-15T07:10:03;22.02;;;14.15;;
21894;SDS011;11112;51.270;7.224;2023-04-15T07:12:32;20.65;;;13.88;;
21894;SDS011;11112;51.270;7.224;2023-04-15T07:15:00;19.73;;;13.70;;
21894;SDS011;11112;51.270;7.224;2023-04-15T07:17:27;17.98;;;13.70;;
21894;SDS011;11112;51.270;7.224;2023-04-15T07:19:55;19.38;;;13.55;;
21894;SDS011;11112;51.270;7.224;2023-04-15T07:22:23;17.50;;;12.82;;
21894;SDS011;11112;51.270;7.224;2023-04-15T07:24:53;19.27;;;13.20;;
21894;SDS011;11112;51.270;7.224;2023-04-15T07:27:21;20.58;;;13.70;;
21894;SDS011;11112;51.270;7.224;2023-04-15T07:29:49;19.17;;;14.05;;
21894;SDS011;11112;51.270;7.224;2023-04-15T07:32:16;17.85;;;13.82;;
21894;SDS011;11112;51.270;7.224;2023-04-15T07:34:45;17.77;;;14.02;;
21894;SDS011;11112;51.270;7.224;2023-04-15T07:37:14;18.08;;;14.20;;
21894;SDS011;11112;51.270;7.224;2023-04-15T07:39:41;18.48;;;14.52;;
21894;SDS011;11112;51.270;7.224;2023-04-15T07:42:10;17.58;;;13.77;;
21894;SDS011;11112;51.270;7.224;2023-04-15T07:44:38;16.77;;;13.13;;
21894;SDS011;11112;51.270;7.224;2023-04-15T07:47:06;19.02;;;13.73;;
21894;SDS011;11112;51.270;7.224;2023-04-15T07:49:36;20.55;;;14.05;;
21894;SDS011;11112;51.270;7.224;2023-04-15T07:52:15;17.70;;;13.27;;
21894;SDS011;11112;51.270;7.224;2023-04-15T07:54:45;18.63;;;13.43;;
21894;SDS011;11112;51.270;7.224;2023-04-15T07:57:13;19.60;;;14.35;;
21894;SDS011;11112;51.270;7.224;2023-04-15T07:59:41;20.83;;;13.55;;
21894;SDS011;11112;51.270;7.224;2023-04-15T08:02:09;16.85;;;12.15;;
21894;SDS011;11112;51.270;7.224;2023-04-15T08:04:37;16.13;;;12.50;;
21894;SDS011;11112;51.270;7.224;2023-04-15T08:07:04;15.93;;;11.60;;
21894;SDS011;11112;51.270;7.224;2023-04-15T08:09:32;18.13;;;11.35;;
21894;SDS011;11112;51.270;7.224;2023-04-15T08:12:00;15.93;;;11.80;;
21894;SDS011;11112;51.270;7.224;2023-04-15T08:14:29;15.85;;;11.73;;
21894;SDS011;11112;51.270;7.224;2023-04-15T08:16:56;15.70;;;11.32;;
21894;SDS011;11112;51.270;7.224;2023-04-15T08:19:24;16.40;;;11.13;;
21894;SDS011;11112;51.270;7.224;2023-04-15T08:21:51;13.82;;;10.60;;
21894;SDS011;11112;51.270;7.224;2023-04-15T08:24:21;13.18;;;10.27;;
21894;SDS011;11112;51.270;7.224;2023-04-15T08:26:51;13.48;;;9.63;;
21894;SDS011;11112;51.270;7.224;2023-04-15T08:29:20;13.43;;;9.50;;
21894;SDS011;11112;51.270;7.224;2023-04-15T08:31:49;13.50;;;8.05;;
21894;SDS011;11112;51.270;7.224;2023-04-15T08:34:17;12.02;;;8.32;;
21894;SDS011;11112;51.270;7.224;2023-04-15T08:36:45;10.77;;;7.97;;
21894;SDS011;11112;51.270;7.224;2023-04-15T08:39:13;12.80;;;8.48;;
21894;SDS011;11112;51.270;7.224;2023-04-15T08:41:44;12.60;;;8.93;;
21894;SDS011;11112;51.270;7.224;2023-04-15T08:44:13;11.32;;;7.82;;
21894;SDS011;11112;51.270;7.224;2023-04-15T08:46:41;11.52;;;7.22;;
21894;SDS011;11112;51.270;7.224;2023-04-15T08:49:10;10.60;;;7.45;;
21894;SDS011;11112;51.270;7.224;2023-04-15T08:51:38;13.35;;;8.73;;
21894;SDS011;11112;51.270;7.224;2023-04-15T08:54:17;10.20;;;7.43;;
21894;SDS011;11112;51.270;7.224;2023-04-15T08:56:45;11.10;;;7.55;;
21894;SDS011;11112;51.270;7.224;2023-04-15T08:59:13;12.65;;;8.95;;
21894;SDS011;11112;51.270;7.224;2023-04-15T09:01:42;11.98;;;8.52;;
21894;SDS011;11112;51.270;7.224;2023-04-15T09:04:11;9.98;;;7.28;;
21894;SDS011;11112;51.270;7.224;2023-04-15T09:06:40;11.68;;;7.90;;
21894;SDS011;11112;51.270;7.224;2023-04-15T09:09:07;9.73;;;7.60;;
21894;SDS011;11112;51.270;7.224;2023-04-15T09:11:37;10.93;;;8.18;;
21894;SDS011;11112;51.270;7.224;2023-04-15T09:14:04;10.90;;;8.15;;
21894;SDS011;11112;51.270;7.224;2023-04-15T09:19:27;11.07;;;8.18;;
21894;SDS011;11112;51.270;7.224;2023-04-15T09:21:57;9.10;;;6.97;;
21894;SDS011;11112;51.270;7.224;2023-04-15T09:24:32;9.35;;;7.28;;
21894;SDS011;11112;51.270;7.224;2023-04-15T09:27:03;9.85;;;7.32;;
21894;SDS011;11112;51.270;7.224;2023-04-15T09:29:31;9.77;;;7.25;;
21894;SDS011;11112;51.270;7.224;2023-04-15T09:32:08;8.30;;;6.32;;
21894;SDS011;11112;51.270;7.224;2023-04-15T09:34:40;8.77;;;6.82;;
21894;SDS011;11112;51.270;7.224;2023-04-15T09:37:09;7.60;;;6.25;;
21894;SDS011;11112;51.270;7.224;2023-04-15T09:39:45;7.40;;;6.15;;
21894;SDS011;11112;51.270;7.224;2023-04-15T09:42:14;7.90;;;5.97;;
21894;SDS011;11112;51.270;7.224;2023-04-15T09:44:48;7.97;;;6.15;;
21894;SDS011;11112;51.270;7.224;2023-04-15T09:47:28;8.88;;;6.22;;
21894;SDS011;11112;51.270;7.224;2023-04-15T09:49:58;8.55;;;6.07;;
21894;SDS011;11112;51.270;7.224;2023-04-15T09:52:26;9.73;;;7.30;;
21894;SDS011;11112;51.270;7.224;2023-04-15T09:54:59;8.82;;;6.38;;
21894;SDS011;11112;51.270;7.224;2023-04-15T09:57:32;7.78;;;6.28;;
21894;SDS011;11112;51.270;7.224;2023-04-15T10:00:01;7.60;;;6.22;;
21894;SDS011;11112;51.270;7.224;2023-04-15T10:02:31;7.35;;;5.97;;
21894;SDS011;11112;51.270;7.224;2023-04-15T10:05:01;6.30;;;5.30;;
21894;SDS011;11112;51.270;7.224;2023-04-15T10:07:34;6.57;;;5.30;;
21894;SDS011;11112;51.270;7.224;2023-04-15T10:10:02;8.07;;;4.93;;
21894;SDS011;11112;51.270;7.224;2023-04-15T10:12:36;6.03;;;5.00;;
21894;SDS011;11112;51.270;7.224;2023-04-15T10:15:05;7.97;;;5.80;;
21894;SDS011;11112;51.270;7.224;2023-04-15T10:17:40;8.02;;;5.60;;
21894;SDS011;11112;51.270;7.224;2023-04-15T10:20:13;8.02;;;6.05;;
21894;SDS011;11112;51.270;7.224;2023-04-15T10:22:45;8.93;;;5.90;;
21894;SDS011;11112;51.270;7.224;2023-04-15T10:25:13;8.27;;;5.95;;
21894;SDS011;11112;51.270;7.224;2023-04-15T10:27:41;7.90;;;6.82;;
21894;SDS011;11112;51.270;7.224;2023-04-15T10:30:10;7.50;;;5.90;;
21894;SDS011;11112;51.270;7.224;2023-04-15T10:32:40;9.00;;;6.32;;
21894;SDS011;11112;51.270;7.224;2023-04-15T10:35:08;7.60;;;6.18;;
21894;SDS011;11112;51.270;7.224;2023-04-15T10:37:38;8.23;;;6.45;;
21894;SDS011;11112;51.270;7.224;2023-04-15T10:40:25;7.93;;;6.63;;
21894;SDS011;11112;51.270;7.224;2023-04-15T10:42:56;12.20;;;8.63;;
21894;SDS011;11112;51.270;7.224;2023-04-15T10:45:26;11.60;;;9.10;;
21894;SDS011;11112;51.270;7.224;2023-04-15T10:48:00;10.00;;;8.48;;
21894;SDS011;11112;51.270;7.224;2023-04-15T10:50:31;9.80;;;8.35;;
21894;SDS011;11112;51.270;7.224;2023-04-15T10:53:01;12.57;;;8.60;;
21894;SDS011;11112;51.270;7.224;2023-04-15T10:55:30;9.82;;;8.50;;
21894;SDS011;11112;51.270;7.224;2023-04-15T10:58:01;10.00;;;8.32;;
21894;SDS011;11112;51.270;7.224;2023-04-15T11:00:31;9.68;;;7.90;;
21894;SDS011;11112;51.270;7.224;2023-04-15T11:03:05;12.00;;;9.23;;
21894;SDS011;11112;51.270;7.224;2023-04-15T11:05:51;10.57;;;8.98;;
21894;SDS011;11112;51.270;7.224;2023-04-15T11:08:51;11.55;;;9.23;;
21894;SDS011;11112;51.270;7.224;2023-04-15T11:14:33;10.82;;;8.57;;
21894;SDS011;11112;51.270;7.224;2023-04-15T11:17:05;10.85;;;8.70;;
21894;SDS011;11112;51.270;7.224;2023-04-15T11:19:36;10.55;;;8.65;;
21894;SDS011;11112;51.270;7.224;2023-04-15T11:22:08;10.52;;;8.18;;
21894;SDS011;11112;51.270;7.224;2023-04-15T11:24:45;8.98;;;7.85;;
21894;SDS011;11112;51.270;7.224;2023-04-15T11:27:19;9.07;;;7.30;;
21894;SDS011;11112;51.270;7.224;2023-04-15T11:29:47;8.13;;;7.13;;
21894;SDS011;11112;51.270;7.224;2023-04-15T11:32:17;8.55;;;6.75;;
21894;SDS011;11112;51.270;7.224;2023-04-15T11:34:45;8.23;;;6.47;;
21894;SDS011;11112;51.270;7.224;2023-04-15T11:37:15;7.93;;;6.30;;
21894;SDS011;11112;51.270;7.224;2023-04-15T11:39:45;7.35;;;5.80;;
21894;SDS011;11112;51.270;7.224;2023-04-15T11:42:17;7.80;;;5.90;;
21894;SDS011;11112;51.270;7.224;2023-04-15T11:44:59;8.60;;;6.60;;
21894;SDS011;11112;51.270;7.224;2023-04-15T11:47:33;7.97;;;6.25;;
21894;SDS011;11112;51.270;7.224;2023-04-15T11:50:15;7.90;;;6.53;;
21894;SDS011;11112;51.270;7.224;2023-04-15T11:55:40;8.07;;;6.55;;
21894;SDS011;11112;51.270;7.224;2023-04-15T11:58:10;11.13;;;7.30;;
21894;SDS011;11112;51.270;7.224;2023-04-15T12:00:41;9.23;;;6.70;;
21894;SDS011;11112;51.270;7.224;2023-04-15T12:03:21;9.33;;;7.10;;
21894;SDS011;11112;51.270;7.224;2023-04-15T12:06:07;8.98;;;6.80;;
21894;SDS011;11112;51.270;7.224;2023-04-15T12:11:42;10.00;;;6.45;;
21894;SDS011;11112;51.270;7.224;2023-04-15T12:14:18;9.32;;;7.30;;
21894;SDS011;11112;51.270;7.224;2023-04-15T12:16:50;8.52;;;6.32;;
21894;SDS011;11112;51.270;7.224;2023-04-15T12:19:21;8.38;;;6.60;;
21894;SDS011;11112;51.270;7.224;2023-04-15T12:21:52;9.73;;;7.47;;
21894;SDS011;11112;51.270;7.224;2023-04-15T12:24:30;11.55;;;8.85;;
21894;SDS011;11112;51.270;7.224;2023-04-15T12:27:00;13.07;;;9.10;;
21894;SDS011;11112;51.270;7.224;2023-04-15T12:29:30;11.73;;;8.10;;
21894;SDS011;11112;51.270;7.224;2023-04-15T12:32:04;9.93;;;8.48;;
21894;SDS011;11112;51.270;7.224;2023-04-15T12:34:33;9.95;;;8.20;;
21894;SDS011;11112;51.270;7.224;2023-04-15T12:37:05;10.73;;;8.60;;
21894;SDS011;11112;51.270;7.224;2023-04-15T12:39:37;14.57;;;8.40;;
21894;SDS011;11112;51.270;7.224;2023-04-15T12:42:05;10.27;;;8.30;;
21894;SDS011;11112;51.270;7.224;2023-04-15T12:44:35;10.63;;;8.70;;
21894;SDS011;11112;51.270;7.224;2023-04-15T12:47:04;9.98;;;7.97;;
21894;SDS011;11112;51.270;7.224;2023-04-15T12:49:36;11.40;;;8.55;;
21894;SDS011;11112;51.270;7.224;2023-04-15T12:52:04;9.05;;;7.45;;
21894;SDS011;11112;51.270;7.224;2023-04-15T12:54:32;9.07;;;7.47;;
21894;SDS011;11112;51.270;7.224;2023-04-15T12:57:01;10.02;;;7.88;;
21894;SDS011;11112;51.270;7.224;2023-04-15T12:59:30;9.32;;;7.47;;
21894;SDS011;11112;51.270;7.224;2023-04-15T13:01:58;9.95;;;7.85;;
21894;SDS011;11112;51.270;7.224;2023-04-15T13:04:27;9.57;;;7.85;;
21894;SDS011;11112;51.270;7.224;2023-04-15T13:06:56;10.13;;;7.80;;
21894;SDS011;11112;51.270;7.224;2023-04-15T13:09:23;11.52;;;8.60;;
21894;SDS011;11112;51.270;7.224;2023-04-15T13:11:51;10.23;;;8.38;;
21894;SDS011;11112;51.270;7.224;2023-04-15T13:14:22;11.18;;;8.73;;
21894;SDS011;11112;51.270;7.224;2023-04-15T13:16:50;10.65;;;7.60;;
21894;SDS011;11112;51.270;7.224;2023-04-15T13:19:18;9.20;;;7.10;;
21894;SDS011;11112;51.270;7.224;2023-04-15T13:21:46;10.73;;;7.60;;
21894;SDS011;11112;51.270;7.224;2023-04-15T13:24:13;9.05;;;6.93;;
21894;SDS011;11112;51.270;7.224;2023-04-15T13:26:40;8.88;;;7.15;;
21894;SDS011;11112;51.270;7.224;2023-04-15T13:29:08;9.05;;;6.97;;
21894;SDS011;11112;51.270;7.224;2023-04-15T13:31:37;10.48;;;6.68;;
21894;SDS011;11112;51.270;7.224;2023-04-15T13:34:05;9.65;;;6.50;;
21894;SDS011;11112;51.270;7.224;2023-04-15T13:36:32;8.75;;;6.10;;
21894;SDS011;11112;51.270;7.224;2023-04-15T13:39:01;8.70;;;6.25;;
21894;SDS011;11112;51.270;7.224;2023-04-15T13:41:29;8.68;;;6.05;;
21894;SDS011;11112;51.270;7.224;2023-04-15T13:43:57;7.22;;;6.07;;
21894;SDS011;11112;51.270;7.224;2023-04-15T13:46:25;7.47;;;5.78;;
21894;SDS011;11112;51.270;7.224;2023-04-15T13:48:58;10.10;;;6.60;;
21894;SDS011;11112;51.270;7.224;2023-04-15T13:51:26;7.45;;;5.93;;
21894;SDS011;11112;51.270;7.224;2023-04-15T13:53:54;9.60;;;6.55;;
21894;SDS011;11112;51.270;7.224;2023-04-15T13:56:22;8.32;;;6.53;;
21894;SDS011;11112;51.270;7.224;2023-04-15T13:58:50;9.10;;;6.15;;
21894;SDS011;11112;51.270;7.224;2023-04-15T14:01:20;11.95;;;6.72;;
21894;SDS011;11112;51.270;7.224;2023-04-15T14:03:47;10.02;;;6.47;;
21894;SDS011;11112;51.270;7.224;2023-04-15T14:06:16;7.57;;;6.05;;
21894;SDS011;11112;51.270;7.224;2023-04-15T14:08:44;8.68;;;6.07;;
21894;SDS011;11112;51.270;7.224;2023-04-15T14:11:12;9.82;;;6.22;;
21894;SDS011;11112;51.270;7.224;2023-04-15T14:13:39;8.93;;;6.43;;
21894;SDS011;11112;51.270;7.224;2023-04-15T14:16:06;9.35;;;6.22;;
21894;SDS011;11112;51.270;7.224;2023-04-15T14:18:35;7.78;;;6.30;;
21894;SDS011;11112;51.270;7.224;2023-04-15T14:21:04;8.50;;;6.50;;
21894;SDS011;11112;51.270;7.224;2023-04-15T14:23:34;8.02;;;6.68;;
21894;SDS011;11112;51.270;7.224;2023-04-15T14:26:02;8.63;;;6.68;;
21894;SDS011;11112;51.270;7.224;2023-04-15T14:28:29;9.23;;;7.13;;
21894;SDS011;11112;51.270;7.224;2023-04-15T14:30:57;9.40;;;6.72;;
21894;SDS011;11112;51.270;7.224;2023-04-15T14:33:25;7.75;;;6.35;;
21894;SDS011;11112;51.270;7.224;2023-04-15T14:35:56;8.85;;;6.30;;
21894;SDS011;11112;51.270;7.224;2023-04-15T14:38:23;8.93;;;6.93;;
21894;SDS011;11112;51.270;7.224;2023-04-15T14:40:53;8.55;;;6.90;;
21894;SDS011;11112;51.270;7.224;2023-04-15T14:43:20;10.25;;;6.95;;
21894;SDS011;11112;51.270;7.224;2023-04-15T14:45:48;10.80;;;7.07;;
21894;SDS011;11112;51.270;7.224;2023-04-15T14:48:16;9.88;;;7.13;;
21894;SDS011;11112;51.270;7.224;2023-04-15T14:50:43;9.38;;;6.88;;
21894;SDS011;11112;51.270;7.224;2023-04-15T14:53:12;9.35;;;6.68;;
21894;SDS011;11112;51.270;7.224;2023-04-15T14:55:40;9.30;;;6.85;;
21894;SDS011;11112;51.270;7.224;2023-04-15T14:58:11;10.88;;;7.32;;
21894;SDS011;11112;51.270;7.224;2023-04-15T15:00:38;13.88;;;9.90;;
21894;SDS011;11112;51.270;7.224;2023-04-15T15:03:08;11.63;;;8.02;;
21894;SDS011;11112;51.270;7.224;2023-04-15T15:05:40;10.85;;;7.32;;
21894;SDS011;11112;51.270;7.224;2023-04-15T15:08:10;9.43;;;6.85;;